Time;durP1;ratioP1;P1;durP2;ratioP2;P2;SDS_P1;SDS_P2;PMS_P1;PMS_P2;Temp;Humidity;BMP_temperature;BMP_pressure;BME280_temperature;BME280_humidity;BME280_pressure;Samples;Min_cycle;Max_cycle;Signal;HPM_P1;HPM_P2
2023/06/12 00:00:47;;;;;;;5.28;3.45;;;;;;;-142.75;78.04;75891.22;5025834;28;20027;-62
2023/06/12 00:03:13;;;;;;;5.90;3.63;;;;;;;-142.75;79.63;75901.06;5025915;28;20486;-62
2023/06/12 00:05:43;;;;;;;4.95;3.47;;;;;;;-142.75;80.25;75905.00;5025916;28;20040;-62
2023/06/12 00:08:09;;;;;;;5.22;3.75;;;;;;;-142.75;81.00;75912.88;5026326;28;20033;-63
2023/06/12 00:10:35;;;;;;;6.40;3.22;;;;;;;-142.75;79.66;75914.84;5025854;28;20029;-63
2023/06/12 00:13:00;;;;;;;7.18;4.15;;;;;;;-142.75;80.29;75918.78;5025743;28;20475;-64
2023/06/12 00:15:26;;;;;;;6.43;3.90;;;;;;;-142.75;78.74;75928.63;5025720;28;20025;-64
2023/06/12 00:17:51;;;;;;;4.90;3.30;;;;;;;-142.75;79.63;75932.56;5025446;28;20025;-62
2023/06/12 00:20:16;;;;;;;6.18;3.75;;;;;;;-142.75;79.25;75938.47;5025754;28;20028;-64
2023/06/12 00:22:43;;;;;;;5.82;3.70;;;;;;;-142.75;79.42;75944.38;5025522;28;20604;-62
2023/06/12 00:25:09;;;;;;;5.32;3.55;;;;;;;-142.75;79.88;75948.31;5025911;28;20149;-62
2023/06/12 00:27:35;;;;;;;6.53;3.55;;;;;;;-142.75;80.81;75967.97;5025333;28;20413;-62
2023/06/12 00:30:00;;;;;;;5.72;3.63;;;;;;;-142.75;79.96;75971.91;5025696;28;20036;-63
2023/06/12 00:32:26;;;;;;;5.40;3.70;;;;;;;-142.75;80.96;75977.81;5025388;28;20017;-63
2023/06/12 00:34:51;;;;;;;5.20;3.38;;;;;;;-142.75;81.14;75981.75;5025462;28;20033;-62
2023/06/12 00:37:17;;;;;;;5.50;3.53;;;;;;;-142.75;83.24;75993.56;5025611;28;20375;-63
2023/06/12 00:39:43;;;;;;;7.22;3.35;;;;;;;-142.75;81.75;75997.50;5026077;28;20586;-62
2023/06/12 00:42:09;;;;;;;5.70;3.40;;;;;;;-142.75;82.38;76005.38;5025080;28;20059;-63
2023/06/12 00:44:35;;;;;;;5.68;3.50;;;;;;;-142.75;82.58;76013.25;5025330;28;20037;-62
2023/06/12 00:47:01;;;;;;;7.63;4.25;;;;;;;-142.75;82.70;76015.22;5025580;28;20025;-63
2023/06/12 00:49:26;;;;;;;6.10;3.67;;;;;;;-142.75;83.87;76025.06;5025221;28;20044;-64
2023/06/12 00:51:52;;;;;;;6.70;4.07;;;;;;;-142.75;83.76;76023.09;5024870;28;20029;-64
2023/06/12 00:54:17;;;;;;;6.88;3.80;;;;;;;-142.75;83.05;76023.09;5025316;28;20025;-62
2023/06/12 00:56:44;;;;;;;6.80;3.65;;;;;;;-142.75;83.83;76030.97;5025230;28;20096;-63
2023/06/12 00:59:10;;;;;;;5.55;3.75;;;;;;;-142.75;83.59;76036.88;5025045;28;20854;-62
2023/06/12 01:01:36;;;;;;;7.88;3.95;;;;;;;-142.75;84.20;76040.81;5024975;28;20096;-63
2023/06/12 01:04:01;;;;;;;7.82;4.10;;;;;;;-142.75;82.52;76046.72;5025411;28;20061;-63
2023/06/12 01:06:47;;;;;;;5.72;4.00;;;;;;;-142.75;83.30;76052.63;5025147;28;20034;-64
2023/06/12 01:09:22;;;;;;;11.68;4.70;;;;;;;-142.75;83.37;76056.56;5027037;28;20030;-63
2023/06/12 01:11:49;;;;;;;6.80;4.20;;;;;;;-142.75;83.39;76050.66;5028846;28;20522;-63
2023/06/12 01:14:17;;;;;;;6.97;4.10;;;;;;;-142.75;83.11;76056.56;5044574;28;20036;-63
2023/06/12 01:16:42;;;;;;;10.40;3.97;;;;;;;-142.75;83.24;76068.38;5029183;28;20031;-63
2023/06/12 01:19:08;;;;;;;8.27;3.70;;;;;;;-142.75;82.87;76080.16;5028945;28;20025;-63
2023/06/12 01:21:35;;;;;;;5.97;4.05;;;;;;;-142.75;84.26;76086.06;5028784;28;20156;-64
2023/06/12 01:24:11;;;;;;;6.82;3.70;;;;;;;-142.75;83.96;76078.19;5029071;28;20108;-63
2023/06/12 01:26:42;;;;;;;;;;;;;;;-142.75;85.35;76076.22;5029577;28;20017;-63
2023/06/12 01:29:43;;;;;;;4.97;3.30;;;;;;;-142.75;84.99;76080.16;5028987;28;20704;-63
2023/06/12 01:32:15;;;;;;;6.18;3.70;;;;;;;-142.75;84.99;76082.13;5028692;28;20052;-63
2023/06/12 01:34:57;;;;;;;10.10;3.97;;;;;;;-142.75;84.70;76078.19;5028527;28;20033;-62
2023/06/12 01:37:44;;;;;;;6.20;3.92;;;;;;;-142.75;86.84;76082.13;5028829;28;20036;-63
2023/06/12 01:40:10;;;;;;;;;;;;;;;-142.75;88.30;76088.03;5030123;28;20441;-63
2023/06/12 01:42:35;;;;;;;8.55;3.65;;;;;;;-142.75;90.69;76082.13;5028353;28;19959;-63
2023/06/12 01:45:02;;;;;;;5.43;3.50;;;;;;;-142.75;87.87;76091.97;5028777;28;20033;-63
2023/06/12 01:47:27;;;;;;;5.32;2.83;;;;;;;-142.75;88.87;76091.97;5028641;28;20044;-65
2023/06/12 01:49:52;;;;;;;4.63;3.35;;;;;;;-142.75;88.44;76095.91;5028490;28;20394;-63
2023/06/12 01:52:18;;;;;;;7.10;4.38;;;;;;;-142.75;86.54;76097.88;5028315;28;20059;-63
2023/06/12 01:54:50;;;;;;;6.45;3.83;;;;;;;-142.75;88.03;76101.81;5028235;28;20025;-63
2023/06/12 01:57:19;;;;;;;6.63;3.67;;;;;;;-142.75;90.48;76109.69;5028516;28;20530;-63
2023/06/12 01:59:48;;;;;;;6.40;4.07;;;;;;;-142.75;91.84;76101.81;5028205;28;20034;-63
2023/06/12 02:02:14;;;;;;;6.00;3.75;;;;;;;-142.75;93.63;76090.00;5027982;28;20078;-62
2023/06/12 02:04:40;;;;;;;7.13;3.90;;;;;;;-142.75;92.61;76093.94;5028436;28;20025;-63
2023/06/12 02:07:06;;;;;;;8.40;4.20;;;;;;;-142.75;91.88;76097.88;5028404;28;20013;-63
2023/06/12 02:09:31;;;;;;;7.38;4.05;;;;;;;-142.75;86.75;76113.63;5028730;28;20025;-64
2023/06/12 02:11:57;;;;;;;6.28;4.40;;;;;;;-142.75;89.43;76121.50;5027804;28;20486;-63
2023/06/12 02:14:23;;;;;;;7.22;4.18;;;;;;;-142.75;90.65;76119.53;5028131;28;20660;-63
2023/06/12 02:16:53;;;;;;;5.70;3.75;;;;;;;-142.75;90.42;76129.38;5027804;28;20056;-64
2023/06/12 02:19:22;;;;;;;6.82;3.85;;;;;;;-142.75;89.08;76137.25;5027987;28;20433;-63
2023/06/12 02:21:57;;;;;;;8.15;3.90;;;;;;;-142.75;87.16;76131.34;5026184;28;20490;-63
2023/06/12 02:24:25;;;;;;;5.13;3.83;;;;;;;-142.75;87.18;76133.31;5028059;28;20380;-64
2023/06/12 02:26:51;;;;;;;11.50;4.15;;;;;;;-142.75;87.93;76133.31;5027657;28;20098;-63
2023/06/12 02:29:17;;;;;;;6.55;3.85;;;;;;;-142.75;88.32;76147.09;5027595;28;20510;-64
2023/06/12 02:31:42;;;;;;;7.88;3.70;;;;;;;-142.75;88.19;76139.22;5027547;28;20025;-64
2023/06/12 02:34:07;;;;;;;6.95;4.25;;;;;;;-142.75;86.59;76127.41;5027799;28;20057;-63
2023/06/12 02:36:33;;;;;;;6.57;3.97;;;;;;;-142.75;86.10;76141.19;5027903;28;20144;-63
2023/06/12 02:39:01;;;;;;;5.03;3.22;;;;;;;-142.75;86.93;76147.09;5028515;28;20026;-63
2023/06/12 02:41:27;;;;;;;5.55;4.00;;;;;;;-142.75;86.77;76151.03;5027264;28;20036;-65
2023/06/12 02:43:52;;;;;;;6.43;3.63;;;;;;;-142.75;87.00;76160.88;5027432;28;20029;-64
2023/06/12 02:46:18;;;;;;;5.95;3.95;;;;;;;-142.75;87.28;76164.81;5027628;28;20540;-64
2023/06/12 02:48:43;;;;;;;7.03;4.07;;;;;;;-142.75;89.82;76180.56;5027270;28;20025;-63
2023/06/12 02:51:08;;;;;;;9.43;4.65;;;;;;;-142.75;89.40;76188.44;5027110;28;20018;-64
2023/06/12 02:53:34;;;;;;;6.97;4.65;;;;;;;-142.75;91.18;76196.31;5027261;28;20117;-62
2023/06/12 02:56:00;;;;;;;7.22;4.30;;;;;;;-142.75;92.03;76212.03;5027423;28;20080;-63
2023/06/12 02:58:25;;;;;;;7.25;3.88;;;;;;;-142.75;92.62;76219.91;5027280;28;20071;-63
2023/06/12 03:00:51;;;;;;;5.70;4.22;;;;;;;-142.75;93.11;76227.78;5026921;28;20026;-64
2023/06/12 03:03:17;;;;;;;6.07;4.28;;;;;;;-142.75;93.18;76227.78;5027125;28;20025;-64
2023/06/12 03:05:43;;;;;;;7.13;3.88;;;;;;;-142.75;94.30;76227.78;5027056;28;20414;-63
2023/06/12 03:08:09;;;;;;;6.32;4.18;;;;;;;-142.75;92.27;76233.69;5027099;28;20028;-64
2023/06/12 03:10:35;;;;;;;7.43;3.90;;;;;;;-142.75;92.44;76231.72;5027479;28;20025;-64
2023/06/12 03:13:00;;;;;;;6.28;3.92;;;;;;;-142.75;93.02;76239.59;5027225;28;20021;-64
2023/06/12 03:15:26;;;;;;;9.30;4.60;;;;;;;-142.75;93.76;76245.50;5026952;28;20084;-63
2023/06/12 03:17:52;;;;;;;6.53;4.53;;;;;;;-142.75;93.80;76251.41;5026931;28;20526;-64
2023/06/12 03:20:17;;;;;;;6.68;4.35;;;;;;;-142.75;94.98;76255.34;5026920;28;20076;-63
2023/06/12 03:22:42;;;;;;;9.23;5.05;;;;;;;-142.75;95.73;76257.31;5026581;28;20033;-64
2023/06/12 03:25:10;;;;;;;10.60;5.05;;;;;;;-142.75;98.79;76259.28;5026583;28;20063;-65
2023/06/12 03:27:36;;;;;;;7.63;4.60;;;;;;;-142.75;99.35;76263.22;5026591;28;20041;-63
2023/06/12 03:30:01;;;;;;;7.10;4.75;;;;;;;-142.75;95.78;76257.31;5026927;28;20105;-64
2023/06/12 03:32:27;;;;;;;7.35;4.57;;;;;;;-142.75;99.09;76271.09;5025910;28;20422;-63
2023/06/12 03:34:52;;;;;;;9.40;5.18;;;;;;;-142.75;99.33;76259.28;5026565;28;20056;-63
2023/06/12 03:37:18;;;;;;;6.70;4.72;;;;;;;-142.75;100.00;76257.31;5026571;28;20053;-63
2023/06/12 03:39:44;;;;;;;13.98;5.38;;;;;;;-142.75;100.00;76251.41;5027123;28;20119;-63
2023/06/12 03:42:10;;;;;;;7.68;4.88;;;;;;;-142.75;100.00;76251.41;5026225;28;20116;-63
2023/06/12 03:44:35;;;;;;;7.90;5.07;;;;;;;-142.75;100.00;76251.41;5026631;28;20036;-63
2023/06/12 03:47:01;;;;;;;7.60;4.60;;;;;;;-142.75;100.00;76245.50;5026729;28;20017;-64
2023/06/12 03:49:26;;;;;;;7.32;5.00;;;;;;;-142.75;100.00;76255.34;5041349;28;20025;-63
2023/06/12 03:51:51;;;;;;;12.32;4.45;;;;;;;-142.75;100.00;76253.38;5025999;28;20075;-63
2023/06/12 03:54:18;;;;;;;9.18;4.43;;;;;;;-142.75;100.00;76255.34;5026214;28;20048;-63
2023/06/12 03:56:43;;;;;;;5.60;3.92;;;;;;;-142.75;100.00;76257.31;5026085;28;20021;-64
2023/06/12 03:59:09;;;;;;;8.00;4.70;;;;;;;-142.75;100.00;76261.25;5041214;28;20026;-63
2023/06/12 04:01:34;;;;;;;6.65;4.65;;;;;;;-142.75;100.00;76265.19;5025975;28;20025;-62
2023/06/12 04:04:00;;;;;;;9.40;4.88;;;;;;;-142.75;100.00;76267.16;5026242;28;20029;-64
2023/06/12 04:06:25;;;;;;;7.90;4.55;;;;;;;-142.75;100.00;76259.28;5026245;28;20155;-63
2023/06/12 04:08:53;;;;;;;10.23;5.07;;;;;;;-142.75;100.00;76267.16;5026222;28;20100;-63
2023/06/12 04:11:19;;;;;;;7.72;4.93;;;;;;;-142.75;100.00;76257.31;5025924;28;20039;-63
2023/06/12 04:13:45;;;;;;;7.53;4.22;;;;;;;-142.75;100.00;76257.31;5025592;28;20017;-63
2023/06/12 04:16:10;;;;;;;8.68;4.70;;;;;;;-142.75;100.00;76265.19;5026010;28;20498;-64
2023/06/12 04:18:37;;;;;;;9.50;4.78;;;;;;;-142.75;100.00;76259.28;5025876;28;20096;-62
2023/06/12 04:21:03;;;;;;;9.38;5.10;;;;;;;-142.75;100.00;76259.28;5025772;28;20036;-63
2023/06/12 04:23:29;;;;;;;8.35;4.97;;;;;;;-142.75;100.00;76259.28;5025865;28;20437;-65
2023/06/12 04:26:04;;;;;;;7.65;4.80;;;;;;;-142.75;100.00;76263.22;5025714;28;20032;-63
2023/06/12 04:28:34;;;;;;;7.32;4.80;;;;;;;-142.75;100.00;76261.25;5025730;28;20025;-63
2023/06/12 04:31:00;;;;;;;6.93;4.65;;;;;;;-142.75;100.00;76259.28;5025558;28;20032;-64
2023/06/12 04:33:30;;;;;;;7.78;4.93;;;;;;;-142.75;100.00;76251.41;5025503;28;20021;-63
2023/06/12 04:36:01;;;;;;;7.28;5.10;;;;;;;-142.75;100.00;76239.59;5025555;28;20029;-64
2023/06/12 04:38:27;;;;;;;7.75;5.35;;;;;;;-142.75;100.00;76249.44;5025645;28;20021;-63
2023/06/12 04:40:54;;;;;;;7.53;4.97;;;;;;;-142.75;100.00;76251.41;5025853;28;20060;-64
2023/06/12 04:43:21;;;;;;;7.05;4.75;;;;;;;-142.75;100.00;76239.59;5024707;28;20031;-63
2023/06/12 04:45:47;;;;;;;10.52;5.30;;;;;;;-142.75;100.00;76243.53;5040599;28;20394;-64
2023/06/12 04:48:13;;;;;;;10.10;4.40;;;;;;;-142.75;100.00;76249.44;5025227;28;20024;-63
2023/06/12 04:50:39;;;;;;;6.07;4.70;;;;;;;-142.75;100.00;76239.59;5025052;28;20022;-63
2023/06/12 04:53:06;;;;;;;7.10;4.55;;;;;;;-142.75;100.00;76235.66;5040651;28;20402;-63
2023/06/12 04:55:31;;;;;;;8.93;4.72;;;;;;;-142.75;100.00;76237.63;5040964;28;20036;-62
2023/06/12 04:57:58;;;;;;;9.75;4.60;;;;;;;-142.75;100.00;76239.59;5025172;28;20025;-64
2023/06/12 05:00:25;;;;;;;7.20;4.07;;;;;;;-142.75;100.00;76229.75;5025460;28;20031;-64
2023/06/12 05:02:52;;;;;;;7.35;4.47;;;;;;;-142.75;100.00;76239.59;5024924;28;20033;-63
2023/06/12 05:05:19;;;;;;;6.85;4.30;;;;;;;-142.75;100.00;76237.63;5025383;28;20048;-64
2023/06/12 05:07:46;;;;;;;10.07;4.70;;;;;;;-142.75;100.00;76243.53;5025516;28;20017;-65
2023/06/12 05:10:13;;;;;;;9.32;4.95;;;;;;;-142.75;100.00;76251.41;5025837;28;20021;-63
2023/06/12 05:12:39;;;;;;;7.78;4.03;;;;;;;-142.75;100.00;76251.41;5024743;28;20584;-64
2023/06/12 05:15:05;;;;;;;9.15;4.75;;;;;;;-142.75;100.00;76247.47;5025299;28;20072;-65
2023/06/12 05:17:31;;;;;;;7.72;4.55;;;;;;;-142.75;100.00;76235.66;5025086;28;20079;-64
2023/06/12 05:19:57;;;;;;;7.05;4.40;;;;;;;-142.75;100.00;76231.72;5025347;28;20025;-63
2023/06/12 05:22:22;;;;;;;6.43;4.47;;;;;;;-142.75;100.00;76221.88;5024938;28;20026;-63
2023/06/12 05:24:47;;;;;;;8.65;4.40;;;;;;;-142.75;100.00;76206.13;5024806;28;20043;-64
2023/06/12 05:27:13;;;;;;;10.27;4.75;;;;;;;-142.75;100.00;76198.28;5023688;28;20028;-63
2023/06/12 05:29:38;;;;;;;8.63;4.82;;;;;;;-142.75;100.00;76186.47;5024383;28;20048;-64
2023/06/12 05:32:05;;;;;;;7.15;4.18;;;;;;;-142.75;100.00;76176.63;5023909;28;20030;-65
2023/06/12 05:34:30;;;;;;;8.48;4.20;;;;;;;-142.75;100.00;76172.69;5024041;28;20030;-63
2023/06/12 05:36:55;;;;;;;7.13;4.50;;;;;;;-142.75;100.00;76162.84;5024247;28;20041;-64
2023/06/12 05:39:21;;;;;;;6.47;4.28;;;;;;;-142.75;100.00;76172.69;5025188;28;20033;-64
2023/06/12 05:41:46;;;;;;;8.70;4.20;;;;;;;-142.75;100.00;76170.72;5023772;28;20029;-63
2023/06/12 05:44:11;;;;;;;6.05;4.13;;;;;;;-142.75;100.00;76156.94;5024971;28;20047;-63
2023/06/12 05:46:37;;;;;;;9.30;4.72;;;;;;;-142.75;100.00;76158.91;5024793;28;20065;-63
2023/06/12 05:49:03;;;;;;;5.95;3.83;;;;;;;-142.75;97.57;76153.00;5024752;28;20117;-63
2023/06/12 05:51:28;;;;;;;6.70;4.13;;;;;;;-142.75;94.49;76154.97;5024606;28;20161;-64
2023/06/12 05:53:54;;;;;;;6.43;3.90;;;;;;;-142.75;100.00;76141.19;5024718;28;20338;-62
2023/06/12 05:56:19;;;;;;;8.88;4.22;;;;;;;-142.75;93.91;76127.41;5027463;28;20068;-60
2023/06/12 05:58:45;;;;;;;8.88;4.25;;;;;;;-142.75;92.08;76123.47;5029108;28;20059;-62
2023/06/12 06:01:16;;;;;;;8.20;4.25;;;;;;;-142.75;95.64;76103.78;5027443;28;20033;-62
2023/06/12 06:03:45;;;;;;;7.38;3.70;;;;;;;-142.75;95.73;76097.88;5027810;28;20048;-63
2023/06/12 06:06:15;;;;;;;7.05;3.83;;;;;;;-142.75;98.02;76082.13;5028027;28;20095;-62
2023/06/12 06:08:40;;;;;;;6.40;3.85;;;;;;;-142.75;91.15;76086.06;5027910;28;20591;-61
2023/06/12 06:11:06;;;;;;;6.38;3.33;;;;;;;-142.75;91.49;76078.19;5028169;28;20036;-61
2023/06/12 06:13:31;;;;;;;8.65;4.38;;;;;;;-142.75;91.58;76090.00;5027896;28;20041;-63
2023/06/12 06:15:57;;;;;;;7.88;3.88;;;;;;;-142.75;90.36;76093.94;5027500;28;20029;-63
2023/06/12 06:18:22;;;;;;;5.63;3.75;;;;;;;-142.75;92.32;76117.56;5026370;28;20602;-62
2023/06/12 06:20:48;;;;;;;7.28;4.03;;;;;;;-142.75;88.93;76113.63;5026814;28;20552;-63
2023/06/12 06:23:13;;;;;;;7.32;3.80;;;;;;;-142.75;89.71;76097.88;5027286;28;20032;-63
2023/06/12 06:25:39;;;;;;;7.65;4.25;;;;;;;-142.75;95.40;76070.34;5025868;28;20033;-64
2023/06/12 06:28:05;;;;;;;9.80;4.07;;;;;;;-142.75;93.22;76054.59;5026537;28;20490;-66
2023/06/12 06:30:30;;;;;;;6.97;4.07;;;;;;;-142.75;92.23;76044.75;5026887;28;20079;-63
2023/06/12 06:32:56;;;;;;;7.50;4.18;;;;;;;-142.75;93.17;76019.16;5026559;28;20026;-62
2023/06/12 06:35:21;;;;;;;8.13;4.32;;;;;;;-142.75;87.12;76007.34;5027052;28;20040;-62
2023/06/12 06:37:47;;;;;;;5.72;3.72;;;;;;;-142.75;87.19;76001.44;5026453;28;20022;-64
2023/06/12 06:40:14;;;;;;;7.20;4.30;;;;;;;-142.75;88.94;75991.59;5027373;28;20071;-63
2023/06/12 06:42:40;;;;;;;8.50;3.90;;;;;;;-142.75;85.49;75995.53;5026313;28;20025;-62
2023/06/12 06:45:06;;;;;;;7.75;4.10;;;;;;;-142.75;87.74;75962.09;5026109;28;20029;-62
2023/06/12 06:47:31;;;;;;;8.55;3.67;;;;;;;-142.75;90.53;75942.41;5026224;28;20009;-62
2023/06/12 06:49:57;;;;;;;6.25;3.97;;;;;;;-142.75;86.62;75932.56;5025878;28;20371;-63
2023/06/12 06:52:22;;;;;;;7.57;4.13;;;;;;;-142.75;90.91;75905.00;5025947;28;20044;-65
2023/06/12 06:54:47;;;;;;;7.18;4.20;;;;;;;-142.75;85.55;75873.50;5025692;28;20036;-63
2023/06/12 06:57:13;;;;;;;6.63;4.30;;;;;;;-142.75;85.61;75851.88;5026361;28;20025;-62
2023/06/12 06:59:38;;;;;;;5.78;3.95;;;;;;;-142.75;83.72;75836.13;5024214;28;20025;-63
2023/06/12 07:02:04;;;;;;;7.28;3.90;;;;;;;-142.75;82.60;75824.31;5023309;28;20663;-62
2023/06/12 07:04:30;;;;;;;5.55;4.07;;;;;;;-142.75;82.67;75812.50;5025073;28;20053;-63
2023/06/12 07:06:55;;;;;;;7.97;4.43;;;;;;;-142.75;82.53;75790.84;5024777;28;20445;-63
2023/06/12 07:09:21;;;;;;;5.97;3.70;;;;;;;-142.75;79.74;75782.97;5026694;28;20028;-62
2023/06/12 07:11:46;;;;;;;7.10;4.40;;;;;;;-142.75;81.68;75775.09;5025896;28;20099;-63
2023/06/12 07:14:11;;;;;;;8.07;4.20;;;;;;;-142.75;79.52;75765.25;5026154;28;20028;-62
2023/06/12 07:16:37;;;;;;;9.27;3.92;;;;;;;-142.75;79.70;75727.88;5025938;28;20551;-63
2023/06/12 07:19:02;;;;;;;6.72;3.72;;;;;;;-142.75;79.32;75708.19;5026264;28;20032;-63
2023/06/12 07:21:27;;;;;;;6.85;3.83;;;;;;;-142.75;79.38;75694.41;5026132;28;20075;-63
2023/06/12 07:23:53;;;;;;;6.68;3.60;;;;;;;-142.75;76.53;75680.63;5025996;28;20545;-63
2023/06/12 07:26:18;;;;;;;7.22;3.90;;;;;;;-142.75;77.93;75668.84;5025948;28;20044;-65
2023/06/12 07:28:43;;;;;;;7.57;3.63;;;;;;;-142.75;75.05;75668.84;5024979;28;20054;-64
2023/06/12 07:31:09;;;;;;;5.85;3.63;;;;;;;-142.75;76.21;75662.94;5024781;28;20512;-63
2023/06/12 07:33:35;;;;;;;9.43;3.80;;;;;;;-142.75;74.60;75653.09;5024749;28;20044;-64
2023/06/12 07:36:00;;;;;;;9.93;3.70;;;;;;;-142.75;72.41;75653.09;5024994;28;20056;-65
2023/06/12 07:38:25;;;;;;;6.35;4.18;;;;;;;-142.75;74.66;75653.09;5024783;28;20025;-64
2023/06/12 07:40:51;;;;;;;6.68;3.67;;;;;;;-142.75;75.46;75627.50;5025289;28;20029;-64
2023/06/12 07:43:16;;;;;;;8.45;3.45;;;;;;;-142.75;77.06;75607.81;5024922;28;20018;-64
2023/06/12 07:45:42;;;;;;;9.73;4.00;;;;;;;-142.75;76.85;75554.69;5024949;28;20048;-64
2023/06/12 07:48:07;;;;;;;12.75;3.78;;;;;;;-142.75;72.05;75538.94;5024732;28;20316;-63
2023/06/12 07:50:33;;;;;;;7.05;4.07;;;;;;;-142.75;70.33;75515.31;5024878;28;20036;-63
2023/06/12 07:52:58;;;;;;;8.63;4.20;;;;;;;-142.75;73.46;75487.78;5024610;28;20047;-63
2023/06/12 07:55:23;;;;;;;7.80;4.07;;;;;;;-142.75;75.01;75475.97;5025189;28;20451;-64
2023/06/12 07:57:50;;;;;;;8.55;4.55;;;;;;;-142.75;72.33;75452.34;5024334;28;20029;-63
2023/06/12 08:00:16;;;;;;;6.78;3.85;;;;;;;-142.75;72.22;75436.59;5024863;28;20082;-62
2023/06/12 08:02:41;;;;;;;8.52;4.03;;;;;;;-142.75;72.00;75411.03;5025123;28;20691;-63
2023/06/12 08:05:08;;;;;;;7.13;4.30;;;;;;;-142.75;71.91;75407.09;5025453;28;20025;-63
2023/06/12 08:07:33;;;;;;;6.65;3.78;;;;;;;-142.75;71.41;75397.25;5025303;28;20693;-62
2023/06/12 08:09:59;;;;;;;10.20;3.72;;;;;;;-142.75;68.61;75391.34;5025839;28;20032;-64
2023/06/12 08:12:24;;;;;;;10.20;4.15;;;;;;;-142.75;67.66;75389.38;5025042;28;20052;-63
2023/06/12 08:14:51;;;;;;;6.55;4.30;;;;;;;-142.75;68.33;75381.50;5025482;28;20048;-63
2023/06/12 08:17:17;;;;;;;7.68;3.80;;;;;;;-142.75;66.19;75381.50;5025263;28;20235;-63
2023/06/12 08:19:42;;;;;;;6.97;3.90;;;;;;;-142.75;63.34;75379.53;5024995;28;20774;-62
2023/06/12 08:22:08;;;;;;;5.30;3.80;;;;;;;-142.75;63.39;75381.50;5024707;28;20087;-62
2023/06/12 08:24:35;;;;;;;7.05;3.42;;;;;;;-142.75;62.18;75377.56;5025145;28;20144;-63
2023/06/12 08:27:01;;;;;;;5.72;3.88;;;;;;;-142.75;64.63;75373.63;5025665;28;20495;-63
2023/06/12 08:29:26;;;;;;;6.45;4.10;;;;;;;-142.75;60.34;75361.84;5024753;28;20033;-63
2023/06/12 08:31:52;;;;;;;6.10;3.55;;;;;;;-142.75;60.07;75361.84;5024478;28;20490;-64
2023/06/12 08:34:18;;;;;;;4.82;3.53;;;;;;;-142.75;58.44;75348.06;5025844;28;20030;-63
2023/06/12 08:36:43;;;;;;;7.53;3.80;;;;;;;-142.75;57.76;75342.16;5026119;28;20445;-63
2023/06/12 08:39:09;;;;;;;6.72;4.13;;;;;;;-142.75;58.25;75338.22;5026219;28;20029;-63
2023/06/12 08:41:37;;;;;;;5.22;3.75;;;;;;;-142.75;60.36;75332.31;5026578;28;20105;-62
2023/06/12 08:44:03;;;;;;;5.75;3.70;;;;;;;-142.75;59.72;75318.53;5027027;28;20033;-62
2023/06/12 08:46:30;;;;;;;6.10;3.95;;;;;;;-142.75;61.28;75326.41;5026882;28;20025;-63
2023/06/12 08:48:59;;;;;;;6.85;3.92;;;;;;;-142.75;62.94;75318.53;5026568;28;20455;-62
2023/06/12 08:51:25;;;;;;;6.22;3.50;;;;;;;-142.75;63.92;75316.56;5026605;28;20029;-64
2023/06/12 08:53:50;;;;;;;8.80;4.22;;;;;;;-142.75;65.41;75302.78;5026068;28;20033;-63
2023/06/12 08:56:16;;;;;;;5.63;3.90;;;;;;;-142.75;63.01;75283.13;5026238;28;20033;-63
2023/06/12 08:58:42;;;;;;;10.02;3.90;;;;;;;-142.75;63.42;75263.44;5025879;28;20026;-63
2023/06/12 09:01:08;;;;;;;7.25;3.15;;;;;;;-142.75;62.65;75220.16;5026032;28;20704;-63
2023/06/12 09:03:36;;;;;;;5.20;3.40;;;;;;;-142.75;60.66;75208.34;5026181;28;20064;-64
2023/06/12 09:06:05;;;;;;;5.22;3.35;;;;;;;-142.75;58.06;75192.59;5026297;28;20014;-63
2023/06/12 09:08:31;;;;;;;4.85;3.08;;;;;;;-142.75;59.62;75200.47;5026281;28;20030;-62
2023/06/12 09:10:57;;;;;;;6.22;3.65;;;;;;;-142.75;58.35;75212.28;5025727;28;20585;-63
2023/06/12 09:13:23;;;;;;;5.90;3.65;;;;;;;-142.75;60.94;75188.66;5025926;28;20123;-63
2023/06/12 09:15:55;;;;;;;5.28;3.45;;;;;;;-142.75;58.35;75159.16;5024884;28;20049;-63
2023/06/12 09:18:20;;;;;;;6.47;3.78;;;;;;;-142.75;56.13;75186.69;5024713;28;20030;-63
2023/06/12 09:20:48;;;;;;;7.18;3.63;;;;;;;-142.75;55.31;75192.59;5026133;28;20084;-63
2023/06/12 09:23:14;;;;;;;5.75;3.17;;;;;;;-142.75;58.38;75155.22;5025901;28;20494;-63
2023/06/12 09:25:41;;;;;;;4.60;3.35;;;;;;;-142.75;58.04;75155.22;5026234;28;20111;-62
2023/06/12 09:28:09;;;;;;;5.70;3.22;;;;;;;-142.75;54.36;75125.69;5025700;28;20609;-62
2023/06/12 09:30:42;;;;;;;3.72;2.92;;;;;;;-142.75;52.94;75131.59;5027859;28;20653;-63
2023/06/12 09:33:08;;;;;;;5.40;3.70;;;;;;;-142.75;54.28;75151.28;5028554;28;20090;-63
2023/06/12 09:35:50;;;;;;;6.43;3.20;;;;;;;-142.75;53.19;75145.38;5030031;28;20514;-63
2023/06/12 09:38:15;;;;;;;5.07;3.50;;;;;;;-142.75;55.57;75157.19;5029248;28;20490;-63
2023/06/12 09:40:40;;;;;;;4.78;3.20;;;;;;;-142.75;53.97;75141.44;5029588;28;20024;-63
2023/06/12 09:43:06;;;;;;;6.82;3.45;;;;;;;-142.75;50.82;75137.50;5029840;28;20053;-64
2023/06/12 09:45:31;;;;;;;6.82;3.17;;;;;;;-142.75;43.27;75153.25;5030212;28;20032;-62
2023/06/12 09:47:56;;;;;;;5.60;2.70;;;;;;;-142.75;43.86;75161.13;5029288;28;20036;-63
2023/06/12 09:50:23;;;;;;;6.05;3.15;;;;;;;-142.75;43.36;75165.03;5029543;28;20578;-63
2023/06/12 09:52:49;;;;;;;6.03;2.90;;;;;;;-142.75;43.06;75137.50;5028351;28;20041;-64
2023/06/12 09:55:18;;;;;;;5.82;3.35;;;;;;;-142.75;43.82;75113.88;5029464;28;20021;-64
2023/06/12 09:57:49;;;;;;;6.15;3.13;;;;;;;-142.75;45.71;75100.09;5029258;28;20022;-62
2023/06/12 10:00:16;;;;;;;6.00;3.10;;;;;;;-142.75;45.21;75082.41;5029360;28;20021;-63
2023/06/12 10:02:52;;;;;;;4.60;2.78;;;;;;;-142.75;44.33;75098.16;5029109;28;20108;-63
2023/06/12 10:05:22;;;;;;;6.45;3.10;;;;;;;-142.75;43.00;75088.31;5028914;28;20402;-65
2023/06/12 10:07:52;;;;;;;5.38;2.60;;;;;;;-142.75;41.46;75080.44;5028687;28;20075;-63
2023/06/12 10:10:18;;;;;;;5.40;3.05;;;;;;;-142.75;43.69;75074.53;5029034;28;20024;-63
2023/06/12 10:12:44;;;;;;;5.93;3.42;;;;;;;-142.75;45.74;75045.00;5028914;28;20402;-63
2023/06/12 10:15:11;;;;;;;4.40;3.00;;;;;;;-142.75;43.14;75045.00;5028953;28;20029;-64
2023/06/12 10:17:38;;;;;;;5.35;2.72;;;;;;;-142.75;41.02;75043.03;5029027;28;20148;-62
2023/06/12 10:20:06;;;;;;;4.22;3.22;;;;;;;-142.75;41.38;75060.75;5029367;28;20017;-65
2023/06/12 10:22:32;;;;;;;4.22;2.83;;;;;;;-142.75;38.56;75086.34;5029221;28;20037;-63
2023/06/12 10:24:59;;;;;;;3.92;2.70;;;;;;;-142.75;38.13;75082.41;5029143;28;20079;-63
2023/06/12 10:27:25;;;;;;;6.72;3.10;;;;;;;-142.75;39.45;75090.28;5029344;28;20033;-64
2023/06/12 10:29:56;;;;;;;8.77;3.40;;;;;;;-142.75;39.07;75082.41;5028989;28;20447;-64
2023/06/12 10:32:22;;;;;;;6.57;3.35;;;;;;;-142.75;38.56;75080.44;5029083;28;20052;-65
2023/06/12 10:34:48;;;;;;;6.18;2.92;;;;;;;-142.75;39.32;75078.47;5029136;28;20108;-64
2023/06/12 10:37:21;;;;;;;3.95;3.00;;;;;;;-142.75;38.11;75078.47;5027661;28;20021;-64
2023/06/12 10:39:47;;;;;;;6.43;3.08;;;;;;;-142.75;38.28;75082.41;5028512;28;20056;-64
2023/06/12 10:42:13;;;;;;;4.10;2.78;;;;;;;-142.75;39.10;75072.56;5027070;28;20025;-64
2023/06/12 10:44:47;;;;;;;7.95;2.88;;;;;;;-142.75;36.32;75066.66;5027782;28;20040;-64
2023/06/12 10:47:21;;;;;;;5.57;3.03;;;;;;;-142.75;38.88;75046.97;5027257;28;20379;-64
2023/06/12 10:49:58;;;;;;;4.22;2.92;;;;;;;-142.75;38.84;75050.91;5028120;28;20025;-65
2023/06/12 10:52:24;;;;;;;6.25;3.38;;;;;;;-142.75;38.60;75041.09;5027858;28;20111;-64
2023/06/12 10:55:11;;;;;;;4.88;3.17;;;;;;;-142.75;36.42;75019.44;5027162;28;20542;-65
2023/06/12 10:57:37;;;;;;;4.65;3.28;;;;;;;-142.75;40.15;75019.44;5027513;28;20026;-63
2023/06/12 11:00:05;;;;;;;6.07;3.33;;;;;;;-142.75;39.09;74987.94;5028139;28;20517;-64
2023/06/12 11:02:31;;;;;;;7.22;3.03;;;;;;;-142.75;37.82;74956.47;5027720;28;20022;-65
2023/06/12 11:05:02;;;;;;;4.80;3.15;;;;;;;-142.75;41.66;74895.47;5027984;28;20032;-64
2023/06/12 11:07:29;;;;;;;4.40;3.30;;;;;;;-142.75;39.59;74862.03;5027683;28;20025;-64
2023/06/12 11:09:54;;;;;;;4.45;3.20;;;;;;;-142.75;36.53;74860.06;5027483;28;20240;-66
2023/06/12 11:12:20;;;;;;;6.97;3.55;;;;;;;-142.75;37.11;74869.88;5027845;28;20025;-63